sensor_id;sensor_type;location;lat;lon;timestamp;temperature;humidity
30764;DHT22;17497;51.476;7.770;2023-02-15T00:00:43;3.80;99.90
30764;DHT22;17497;51.476;7.770;2023-02-15T00:03:10;3.80;99.90
30764;DHT22;17497;51.476;7.770;2023-02-15T00:05:36;3.70;99.90
30764;DHT22;17497;51.476;7.770;2023-02-15T00:08:03;3.70;99.90
30764;DHT22;17497;51.476;7.770;2023-02-15T00:10:30;3.60;99.90
30764;DHT22;17497;51.476;7.770;2023-02-15T00:12:56;3.60;99.90
30764;DHT22;17497;51.476;7.770;2023-02-15T00:15:23;3.60;99.90
30764;DHT22;17497;51.476;7.770;2023-02-15T00:17:49;3.60;99.90
30764;DHT22;17497;51.476;7.770;2023-02-15T00:20:16;3.60;99.90
30764;DHT22;17497;51.476;7.770;2023-02-15T00:22:43;3.70;99.90
30764;DHT22;17497;51.476;7.770;2023-02-15T00:25:10;3.70;99.90
30764;DHT22;17497;51.476;7.770;2023-02-15T00:27:36;3.70;99.90
30764;DHT22;17497;51.476;7.770;2023-02-15T00:30:03;3.70;99.90
30764;DHT22;17497;51.476;7.770;2023-02-15T00:32:30;3.70;99.90
30764;DHT22;17497;51.476;7.770;2023-02-15T00:34:57;3.60;99.90
30764;DHT22;17497;51.476;7.770;2023-02-15T00:37:24;3.60;99.90
30764;DHT22;17497;51.476;7.770;2023-02-15T00:39:50;3.60;99.90
30764;DHT22;17497;51.476;7.770;2023-02-15T00:42:17;3.60;99.90
30764;DHT22;17497;51.476;7.770;2023-02-15T00:44:43;3.60;99.90
30764;DHT22;17497;51.476;7.770;2023-02-15T00:47:10;3.60;99.90
30764;DHT22;17497;51.476;7.770;2023-02-15T00:49:37;3.60;99.90
30764;DHT22;17497;51.476;7.770;2023-02-15T00:52:03;3.60;99.90
30764;DHT22;17497;51.476;7.770;2023-02-15T00:54:30;3.60;99.90
30764;DHT22;17497;51.476;7.770;2023-02-15T00:56:56;3.60;99.90
30764;DHT22;17497;51.476;7.770;2023-02-15T00:59:23;3.60;99.90
30764;DHT22;17497;51.476;7.770;2023-02-15T01:01:50;3.60;99.90
30764;DHT22;17497;51.476;7.770;2023-02-15T01:04:16;3.60;99.90
30764;DHT22;17497;51.476;7.770;2023-02-15T01:06:43;3.50;99.90
30764;DHT22;17497;51.476;7.770;2023-02-15T01:09:10;3.50;99.90
30764;DHT22;17497;51.476;7.770;2023-02-15T01:11:36;3.50;99.90
30764;DHT22;17497;51.476;7.770;2023-02-15T01:14:03;3.40;99.90
30764;DHT22;17497;51.476;7.770;2023-02-15T01:16:31;3.40;99.90
30764;DHT22;17497;51.476;7.770;2023-02-15T01:18:58;3.40;99.90
30764;DHT22;17497;51.476;7.770;2023-02-15T01:21:25;3.40;99.90
30764;DHT22;17497;51.476;7.770;2023-02-15T01:23:52;3.30;99.90
30764;DHT22;17497;51.476;7.770;2023-02-15T01:26:19;3.30;99.90
30764;DHT22;17497;51.476;7.770;2023-02-15T01:28:45;3.30;99.90
30764;DHT22;17497;51.476;7.770;2023-02-15T01:31:16;3.30;99.90
30764;DHT22;17497;51.476;7.770;2023-02-15T01:33:43;3.30;99.90
30764;DHT22;17497;51.476;7.770;2023-02-15T01:36:10;3.20;99.90
30764;DHT22;17497;51.476;7.770;2023-02-15T01:38:36;3.30;99.90
30764;DHT22;17497;51.476;7.770;2023-02-15T01:41:03;3.30;99.90
30764;DHT22;17497;51.476;7.770;2023-02-15T01:43:50;3.30;99.90
30764;DHT22;17497;51.476;7.770;2023-02-15T01:46:17;3.30;99.90
30764;DHT22;17497;51.476;7.770;2023-02-15T01:48:49;3.30;99.90
30764;DHT22;17497;51.476;7.770;2023-02-15T01:51:17;3.30;99.90
30764;DHT22;17497;51.476;7.770;2023-02-15T01:53:50;3.30;99.90
30764;DHT22;17497;51.476;7.770;2023-02-15T01:56:27;3.30;99.90
30764;DHT22;17497;51.476;7.770;2023-02-15T01:58:55;3.30;99.90
30764;DHT22;17497;51.476;7.770;2023-02-15T02:01:24;3.30;99.90
30764;DHT22;17497;51.476;7.770;2023-02-15T02:06:44;3.20;99.90
30764;DHT22;17497;51.476;7.770;2023-02-15T02:09:12;3.20;99.90
30764;DHT22;17497;51.476;7.770;2023-02-15T02:11:39;3.20;99.90
30764;DHT22;17497;51.476;7.770;2023-02-15T02:14:06;3.30;99.90
30764;DHT22;17497;51.476;7.770;2023-02-15T02:24:43;3.40;99.90
30764;DHT22;17497;51.476;7.770;2023-02-15T02:35:00;3.40;99.90
30764;DHT22;17497;51.476;7.770;2023-02-15T02:37:33;3.50;99.90
30764;DHT22;17497;51.476;7.770;2023-02-15T02:45:37;3.50;99.90
30764;DHT22;17497;51.476;7.770;2023-02-15T02:48:13;3.60;99.90
30764;DHT22;17497;51.476;7.770;2023-02-15T02:50:41;3.50;99.90
30764;DHT22;17497;51.476;7.770;2023-02-15T02:53:08;3.50;99.90
30764;DHT22;17497;51.476;7.770;2023-02-15T02:55:40;3.50;99.90
30764;DHT22;17497;51.476;7.770;2023-02-15T02:58:14;3.40;99.90
30764;DHT22;17497;51.476;7.770;2023-02-15T03:00:51;3.30;99.90
30764;DHT22;17497;51.476;7.770;2023-02-15T03:05:46;3.30;99.90
30764;DHT22;17497;51.476;7.770;2023-02-15T03:08:14;3.30;99.90
30764;DHT22;17497;51.476;7.770;2023-02-15T03:10:48;3.30;99.90
30764;DHT22;17497;51.476;7.770;2023-02-15T03:13:15;3.30;99.90
30764;DHT22;17497;51.476;7.770;2023-02-15T03:15:42;3.40;99.90
30764;DHT22;17497;51.476;7.770;2023-02-15T03:18:30;3.50;99.90
30764;DHT22;17497;51.476;7.770;2023-02-15T03:20:59;3.50;99.90
30764;DHT22;17497;51.476;7.770;2023-02-15T03:23:27;3.40;99.90
30764;DHT22;17497;51.476;7.770;2023-02-15T03:26:04;3.50;99.90
30764;DHT22;17497;51.476;7.770;2023-02-15T03:28:36;3.40;99.90
30764;DHT22;17497;51.476;7.770;2023-02-15T03:31:04;3.40;99.90
30764;DHT22;17497;51.476;7.770;2023-02-15T03:33:32;3.30;99.90
30764;DHT22;17497;51.476;7.770;2023-02-15T03:38:30;3.20;99.90
30764;DHT22;17497;51.476;7.770;2023-02-15T03:41:00;3.10;99.90
30764;DHT22;17497;51.476;7.770;2023-02-15T03:46:08;3.00;99.90
30764;DHT22;17497;51.476;7.770;2023-02-15T03:48:42;3.00;99.90
30764;DHT22;17497;51.476;7.770;2023-02-15T03:51:11;3.00;99.90
30764;DHT22;17497;51.476;7.770;2023-02-15T03:53:57;2.90;99.90
30764;DHT22;17497;51.476;7.770;2023-02-15T03:56:24;2.90;99.90
30764;DHT22;17497;51.476;7.770;2023-02-15T03:58:51;2.90;99.90
30764;DHT22;17497;51.476;7.770;2023-02-15T04:04:21;2.80;99.90
30764;DHT22;17497;51.476;7.770;2023-02-15T04:06:51;2.80;99.90
30764;DHT22;17497;51.476;7.770;2023-02-15T04:09:17;2.80;99.90
30764;DHT22;17497;51.476;7.770;2023-02-15T04:12:03;2.80;99.90
30764;DHT22;17497;51.476;7.770;2023-02-15T04:14:29;2.70;99.90
30764;DHT22;17497;51.476;7.770;2023-02-15T04:17:14;2.80;99.90
30764;DHT22;17497;51.476;7.770;2023-02-15T04:19:41;2.90;99.90
30764;DHT22;17497;51.476;7.770;2023-02-15T04:22:26;2.90;99.90
30764;DHT22;17497;51.476;7.770;2023-02-15T04:25:11;2.90;99.90
30764;DHT22;17497;51.476;7.770;2023-02-15T04:27:41;2.80;99.90
30764;DHT22;17497;51.476;7.770;2023-02-15T04:30:08;2.80;99.90
30764;DHT22;17497;51.476;7.770;2023-02-15T04:32:35;2.70;99.90
30764;DHT22;17497;51.476;7.770;2023-02-15T04:35:02;2.70;99.90
30764;DHT22;17497;51.476;7.770;2023-02-15T04:37:29;2.70;99.90
30764;DHT22;17497;51.476;7.770;2023-02-15T04:39:56;2.70;99.90
30764;DHT22;17497;51.476;7.770;2023-02-15T04:42:25;2.60;99.90
30764;DHT22;17497;51.476;7.770;2023-02-15T04:44:52;2.60;99.90
30764;DHT22;17497;51.476;7.770;2023-02-15T04:47:19;2.60;99.90
30764;DHT22;17497;51.476;7.770;2023-02-15T04:49:45;2.60;99.90
30764;DHT22;17497;51.476;7.770;2023-02-15T04:52:12;2.50;99.90
30764;DHT22;17497;51.476;7.770;2023-02-15T04:54:39;2.40;99.90
30764;DHT22;17497;51.476;7.770;2023-02-15T04:57:06;2.40;99.90
30764;DHT22;17497;51.476;7.770;2023-02-15T04:59:32;2.40;99.90
30764;DHT22;17497;51.476;7.770;2023-02-15T05:01:59;2.30;99.90
30764;DHT22;17497;51.476;7.770;2023-02-15T05:04:25;2.30;99.90
30764;DHT22;17497;51.476;7.770;2023-02-15T05:06:52;2.30;99.90
30764;DHT22;17497;51.476;7.770;2023-02-15T05:09:19;2.30;99.90
30764;DHT22;17497;51.476;7.770;2023-02-15T05:11:45;2.40;99.90
30764;DHT22;17497;51.476;7.770;2023-02-15T05:14:12;2.40;99.90
30764;DHT22;17497;51.476;7.770;2023-02-15T05:16:38;2.50;99.90
30764;DHT22;17497;51.476;7.770;2023-02-15T05:19:05;2.50;99.90
30764;DHT22;17497;51.476;7.770;2023-02-15T05:21:32;2.50;99.90
30764;DHT22;17497;51.476;7.770;2023-02-15T05:23:59;2.50;99.90
30764;DHT22;17497;51.476;7.770;2023-02-15T05:26:25;2.50;99.90
30764;DHT22;17497;51.476;7.770;2023-02-15T05:29:11;2.60;99.90
30764;DHT22;17497;51.476;7.770;2023-02-15T05:31:37;2.60;99.90
30764;DHT22;17497;51.476;7.770;2023-02-15T05:34:04;2.50;99.90
30764;DHT22;17497;51.476;7.770;2023-02-15T05:36:31;2.40;99.90
30764;DHT22;17497;51.476;7.770;2023-02-15T05:38:57;2.40;99.90
30764;DHT22;17497;51.476;7.770;2023-02-15T05:41:24;2.40;99.90
30764;DHT22;17497;51.476;7.770;2023-02-15T05:43:54;2.40;99.90
30764;DHT22;17497;51.476;7.770;2023-02-15T05:46:21;2.40;99.90
30764;DHT22;17497;51.476;7.770;2023-02-15T05:48:47;2.40;99.90
30764;DHT22;17497;51.476;7.770;2023-02-15T05:51:14;2.40;99.90
30764;DHT22;17497;51.476;7.770;2023-02-15T05:53:42;2.40;99.90
30764;DHT22;17497;51.476;7.770;2023-02-15T05:56:09;2.30;99.90
30764;DHT22;17497;51.476;7.770;2023-02-15T05:58:37;2.30;99.90
30764;DHT22;17497;51.476;7.770;2023-02-15T06:01:11;2.20;99.90
30764;DHT22;17497;51.476;7.770;2023-02-15T06:03:38;2.20;99.90
30764;DHT22;17497;51.476;7.770;2023-02-15T06:06:05;2.20;99.90
30764;DHT22;17497;51.476;7.770;2023-02-15T06:08:33;2.10;99.90
30764;DHT22;17497;51.476;7.770;2023-02-15T06:11:00;2.10;99.90
30764;DHT22;17497;51.476;7.770;2023-02-15T06:13:26;2.20;99.90
30764;DHT22;17497;51.476;7.770;2023-02-15T06:15:53;2.10;99.90
30764;DHT22;17497;51.476;7.770;2023-02-15T06:18:20;2.10;99.90
30764;DHT22;17497;51.476;7.770;2023-02-15T06:25:59;2.10;99.90
30764;DHT22;17497;51.476;7.770;2023-02-15T06:28:26;2.10;99.90
30764;DHT22;17497;51.476;7.770;2023-02-15T06:30:53;2.20;99.90
30764;DHT22;17497;51.476;7.770;2023-02-15T06:33:20;2.10;99.90
30764;DHT22;17497;51.476;7.770;2023-02-15T06:35:46;2.10;99.90
30764;DHT22;17497;51.476;7.770;2023-02-15T06:38:13;2.10;99.90
30764;DHT22;17497;51.476;7.770;2023-02-15T06:40:40;2.10;99.90
30764;DHT22;17497;51.476;7.770;2023-02-15T06:43:07;2.10;99.90
30764;DHT22;17497;51.476;7.770;2023-02-15T06:45:33;2.10;99.90
30764;DHT22;17497;51.476;7.770;2023-02-15T06:48:00;2.10;99.90
30764;DHT22;17497;51.476;7.770;2023-02-15T06:50:27;2.10;99.90
30764;DHT22;17497;51.476;7.770;2023-02-15T06:52:57;2.10;99.90
30764;DHT22;17497;51.476;7.770;2023-02-15T06:55:23;2.10;99.90
30764;DHT22;17497;51.476;7.770;2023-02-15T06:57:50;2.10;99.90
30764;DHT22;17497;51.476;7.770;2023-02-15T07:00:17;2.10;99.90
30764;DHT22;17497;51.476;7.770;2023-02-15T07:02:44;2.10;99.90
30764;DHT22;17497;51.476;7.770;2023-02-15T07:05:11;2.10;99.90
30764;DHT22;17497;51.476;7.770;2023-02-15T07:07:38;2.10;99.90
30764;DHT22;17497;51.476;7.770;2023-02-15T07:10:04;2.10;99.90
30764;DHT22;17497;51.476;7.770;2023-02-15T07:12:31;2.10;99.90
30764;DHT22;17497;51.476;7.770;2023-02-15T07:15:12;2.20;99.90
30764;DHT22;17497;51.476;7.770;2023-02-15T07:17:39;2.30;99.90
30764;DHT22;17497;51.476;7.770;2023-02-15T07:20:07;2.30;99.90
30764;DHT22;17497;51.476;7.770;2023-02-15T07:22:34;2.20;99.90
30764;DHT22;17497;51.476;7.770;2023-02-15T07:25:03;2.10;99.90
30764;DHT22;17497;51.476;7.770;2023-02-15T07:27:30;2.00;99.90
30764;DHT22;17497;51.476;7.770;2023-02-15T07:29:57;2.00;99.90
30764;DHT22;17497;51.476;7.770;2023-02-15T07:32:23;1.90;99.90
30764;DHT22;17497;51.476;7.770;2023-02-15T07:34:50;2.00;99.90
30764;DHT22;17497;51.476;7.770;2023-02-15T07:37:16;2.00;99.90
30764;DHT22;17497;51.476;7.770;2023-02-15T07:39:43;2.10;99.90
30764;DHT22;17497;51.476;7.770;2023-02-15T07:42:09;2.20;99.90
30764;DHT22;17497;51.476;7.770;2023-02-15T07:44:36;2.30;99.90
30764;DHT22;17497;51.476;7.770;2023-02-15T07:47:03;2.30;99.90
30764;DHT22;17497;51.476;7.770;2023-02-15T07:49:29;2.40;99.90
30764;DHT22;17497;51.476;7.770;2023-02-15T07:51:56;2.40;99.90
30764;DHT22;17497;51.476;7.770;2023-02-15T07:54:22;2.40;99.90
30764;DHT22;17497;51.476;7.770;2023-02-15T07:56:49;2.50;99.90
30764;DHT22;17497;51.476;7.770;2023-02-15T07:59:15;2.50;99.90
30764;DHT22;17497;51.476;7.770;2023-02-15T08:01:42;2.60;99.90
30764;DHT22;17497;51.476;7.770;2023-02-15T08:04:09;2.60;99.90
30764;DHT22;17497;51.476;7.770;2023-02-15T08:06:37;2.70;99.90
30764;DHT22;17497;51.476;7.770;2023-02-15T08:09:07;2.90;99.90
30764;DHT22;17497;51.476;7.770;2023-02-15T08:11:35;3.00;99.90
30764;DHT22;17497;51.476;7.770;2023-02-15T08:14:08;3.10;99.90
30764;DHT22;17497;51.476;7.770;2023-02-15T08:21:39;3.20;99.90
30764;DHT22;17497;51.476;7.770;2023-02-15T08:24:06;3.30;99.90
30764;DHT22;17497;51.476;7.770;2023-02-15T08:26:33;3.30;99.90
30764;DHT22;17497;51.476;7.770;2023-02-15T08:29:00;3.40;99.90
30764;DHT22;17497;51.476;7.770;2023-02-15T08:31:27;3.50;99.90
30764;DHT22;17497;51.476;7.770;2023-02-15T08:33:55;3.50;99.90
30764;DHT22;17497;51.476;7.770;2023-02-15T08:36:23;3.60;99.90
30764;DHT22;17497;51.476;7.770;2023-02-15T08:38:50;3.70;99.90
30764;DHT22;17497;51.476;7.770;2023-02-15T08:41:21;3.80;99.90
30764;DHT22;17497;51.476;7.770;2023-02-15T08:43:49;3.80;99.90
30764;DHT22;17497;51.476;7.770;2023-02-15T08:46:17;4.00;99.90
30764;DHT22;17497;51.476;7.770;2023-02-15T08:48:44;4.00;99.90
30764;DHT22;17497;51.476;7.770;2023-02-15T08:51:15;4.20;99.90
30764;DHT22;17497;51.476;7.770;2023-02-15T08:53:43;4.20;99.90
30764;DHT22;17497;51.476;7.770;2023-02-15T08:56:11;4.30;99.90
30764;DHT22;17497;51.476;7.770;2023-02-15T08:58:38;4.40;99.90
30764;DHT22;17497;51.476;7.770;2023-02-15T09:01:08;4.50;99.90
30764;DHT22;17497;51.476;7.770;2023-02-15T09:03:35;4.60;99.90
30764;DHT22;17497;51.476;7.770;2023-02-15T09:06:02;4.70;99.90
30764;DHT22;17497;51.476;7.770;2023-02-15T09:08:29;4.80;99.90
30764;DHT22;17497;51.476;7.770;2023-02-15T09:11:03;4.90;99.90
30764;DHT22;17497;51.476;7.770;2023-02-15T09:13:30;5.00;99.90
30764;DHT22;17497;51.476;7.770;2023-02-15T09:16:04;5.10;99.90
30764;DHT22;17497;51.476;7.770;2023-02-15T09:18:31;5.20;99.90
30764;DHT22;17497;51.476;7.770;2023-02-15T09:21:03;5.30;99.90
30764;DHT22;17497;51.476;7.770;2023-02-15T09:23:30;5.40;99.90
30764;DHT22;17497;51.476;7.770;2023-02-15T09:25:56;5.50;99.90
30764;DHT22;17497;51.476;7.770;2023-02-15T09:28:23;5.60;99.90
30764;DHT22;17497;51.476;7.770;2023-02-15T09:30:50;5.70;99.90
30764;DHT22;17497;51.476;7.770;2023-02-15T09:33:16;5.80;99.90
30764;DHT22;17497;51.476;7.770;2023-02-15T09:35:43;5.90;99.90
30764;DHT22;17497;51.476;7.770;2023-02-15T09:38:09;6.00;99.90
30764;DHT22;17497;51.476;7.770;2023-02-15T09:40:39;6.10;99.90
30764;DHT22;17497;51.476;7.770;2023-02-15T09:43:11;6.20;99.90
30764;DHT22;17497;51.476;7.770;2023-02-15T09:45:45;6.50;99.90
30764;DHT22;17497;51.476;7.770;2023-02-15T09:48:24;6.90;99.90
30764;DHT22;17497;51.476;7.770;2023-02-15T09:51:00;7.20;99.90
30764;DHT22;17497;51.476;7.770;2023-02-15T09:53:36;7.40;99.90
30764;DHT22;17497;51.476;7.770;2023-02-15T09:56:15;7.70;99.90
30764;DHT22;17497;51.476;7.770;2023-02-15T10:03:52;8.60;99.90
30764;DHT22;17497;51.476;7.770;2023-02-15T10:06:34;8.90;99.90
30764;DHT22;17497;51.476;7.770;2023-02-15T10:09:17;9.10;99.90
30764;DHT22;17497;51.476;7.770;2023-02-15T10:22:29;10.50;99.90
30764;DHT22;17497;51.476;7.770;2023-02-15T10:27:46;11.20;99.90
30764;DHT22;17497;51.476;7.770;2023-02-15T10:30:17;11.30;99.90
30764;DHT22;17497;51.476;7.770;2023-02-15T10:32:58;11.50;99.90
30764;DHT22;17497;51.476;7.770;2023-02-15T10:40:40;12.40;99.90
30764;DHT22;17497;51.476;7.770;2023-02-15T10:45:57;13.40;99.90
30764;DHT22;17497;51.476;7.770;2023-02-15T10:51:02;14.30;99.90
30764;DHT22;17497;51.476;7.770;2023-02-15T10:58:49;14.30;99.90
30764;DHT22;17497;51.476;7.770;2023-02-15T11:01:25;14.60;99.90
30764;DHT22;17497;51.476;7.770;2023-02-15T11:04:09;15.10;99.90
30764;DHT22;17497;51.476;7.770;2023-02-15T11:06:44;15.80;99.50
30764;DHT22;17497;51.476;7.770;2023-02-15T11:09:14;16.40;98.10
30764;DHT22;17497;51.476;7.770;2023-02-15T11:11:45;15.90;98.00
30764;DHT22;17497;51.476;7.770;2023-02-15T11:14:15;16.00;97.70
30764;DHT22;17497;51.476;7.770;2023-02-15T11:16:45;17.10;96.10
30764;DHT22;17497;51.476;7.770;2023-02-15T11:19:14;17.90;93.70
30764;DHT22;17497;51.476;7.770;2023-02-15T11:21:43;18.20;93.80
30764;DHT22;17497;51.476;7.770;2023-02-15T11:24:11;17.50;95.60
30764;DHT22;17497;51.476;7.770;2023-02-15T11:34:49;19.50;88.50
30764;DHT22;17497;51.476;7.770;2023-02-15T11:37:18;19.60;84.20
30764;DHT22;17497;51.476;7.770;2023-02-15T11:39:46;19.30;88.10
30764;DHT22;17497;51.476;7.770;2023-02-15T11:42:19;18.40;87.00
30764;DHT22;17497;51.476;7.770;2023-02-15T11:47:22;18.40;86.10
30764;DHT22;17497;51.476;7.770;2023-02-15T11:49:49;18.90;89.10
30764;DHT22;17497;51.476;7.770;2023-02-15T11:52:16;19.20;87.00
30764;DHT22;17497;51.476;7.770;2023-02-15T11:54:45;19.20;83.40
30764;DHT22;17497;51.476;7.770;2023-02-15T11:57:19;19.30;85.40
30764;DHT22;17497;51.476;7.770;2023-02-15T12:00:50;19.50;83.10
30764;DHT22;17497;51.476;7.770;2023-02-15T12:02:45;18.90;82.50
30764;DHT22;17497;51.476;7.770;2023-02-15T12:05:14;19.70;82.30
30764;DHT22;17497;51.476;7.770;2023-02-15T12:08:01;20.10;76.80
30764;DHT22;17497;51.476;7.770;2023-02-15T12:10:38;20.30;76.60
30764;DHT22;17497;51.476;7.770;2023-02-15T12:13:16;20.50;75.60
30764;DHT22;17497;51.476;7.770;2023-02-15T12:15:47;19.20;76.80
30764;DHT22;17497;51.476;7.770;2023-02-15T12:18:17;19.60;79.20
30764;DHT22;17497;51.476;7.770;2023-02-15T12:20:45;19.80;76.60
30764;DHT22;17497;51.476;7.770;2023-02-15T12:23:12;19.70;75.20
30764;DHT22;17497;51.476;7.770;2023-02-15T12:25:48;20.40;75.80
30764;DHT22;17497;51.476;7.770;2023-02-15T12:28:32;19.80;76.10
30764;DHT22;17497;51.476;7.770;2023-02-15T12:30:59;19.80;78.50
30764;DHT22;17497;51.476;7.770;2023-02-15T12:33:34;20.00;69.70
30764;DHT22;17497;51.476;7.770;2023-02-15T12:36:11;20.10;68.70
30764;DHT22;17497;51.476;7.770;2023-02-15T12:38:39;20.50;66.00
30764;DHT22;17497;51.476;7.770;2023-02-15T12:41:22;19.30;64.70
30764;DHT22;17497;51.476;7.770;2023-02-15T12:44:02;19.00;66.60
30764;DHT22;17497;51.476;7.770;2023-02-15T12:46:29;18.70;65.40
30764;DHT22;17497;51.476;7.770;2023-02-15T12:54:39;18.20;67.70
30764;DHT22;17497;51.476;7.770;2023-02-15T12:59:56;18.60;69.80
30764;DHT22;17497;51.476;7.770;2023-02-15T13:02:25;19.00;67.00
30764;DHT22;17497;51.476;7.770;2023-02-15T13:04:51;19.20;66.60
30764;DHT22;17497;51.476;7.770;2023-02-15T13:07:19;19.70;67.00
30764;DHT22;17497;51.476;7.770;2023-02-15T13:09:46;20.10;65.10
30764;DHT22;17497;51.476;7.770;2023-02-15T13:14:47;19.90;68.40
30764;DHT22;17497;51.476;7.770;2023-02-15T13:17:17;19.70;66.10
30764;DHT22;17497;51.476;7.770;2023-02-15T13:19:46;19.90;66.70
30764;DHT22;17497;51.476;7.770;2023-02-15T13:22:15;20.10;64.70
30764;DHT22;17497;51.476;7.770;2023-02-15T13:24:44;20.70;62.50
30764;DHT22;17497;51.476;7.770;2023-02-15T13:27:14;20.60;63.30
30764;DHT22;17497;51.476;7.770;2023-02-15T13:29:45;21.00;61.90
30764;DHT22;17497;51.476;7.770;2023-02-15T13:34:39;20.60;60.10
30764;DHT22;17497;51.476;7.770;2023-02-15T13:37:17;21.50;62.30
30764;DHT22;17497;51.476;7.770;2023-02-15T13:40:07;22.30;58.50
30764;DHT22;17497;51.476;7.770;2023-02-15T13:50:54;22.20;53.30
30764;DHT22;17497;51.476;7.770;2023-02-15T13:56:02;22.70;48.60
30764;DHT22;17497;51.476;7.770;2023-02-15T14:01:24;21.30;50.40
30764;DHT22;17497;51.476;7.770;2023-02-15T14:11:29;22.00;52.60
30764;DHT22;17497;51.476;7.770;2023-02-15T14:19:37;21.90;51.20
30764;DHT22;17497;51.476;7.770;2023-02-15T14:22:49;22.00;49.20
30764;DHT22;17497;51.476;7.770;2023-02-15T14:30:42;22.40;48.60
30764;DHT22;17497;51.476;7.770;2023-02-15T14:33:04;22.70;48.60
30764;DHT22;17497;51.476;7.770;2023-02-15T14:35:32;22.10;49.30
30764;DHT22;17497;51.476;7.770;2023-02-15T14:48:45;21.50;48.90
30764;DHT22;17497;51.476;7.770;2023-02-15T14:53:58;22.40;47.30
30764;DHT22;17497;51.476;7.770;2023-02-15T14:56:24;23.50;46.10
30764;DHT22;17497;51.476;7.770;2023-02-15T15:01:26;22.70;46.40
30764;DHT22;17497;51.476;7.770;2023-02-15T15:03:53;22.70;46.70
30764;DHT22;17497;51.476;7.770;2023-02-15T15:06:26;22.90;46.80
30764;DHT22;17497;51.476;7.770;2023-02-15T15:09:05;22.20;47.10
30764;DHT22;17497;51.476;7.770;2023-02-15T15:11:38;21.30;48.50
30764;DHT22;17497;51.476;7.770;2023-02-15T15:14:10;20.50;50.40
30764;DHT22;17497;51.476;7.770;2023-02-15T15:19:05;21.40;50.70
30764;DHT22;17497;51.476;7.770;2023-02-15T15:30:19;18.90;53.10
30764;DHT22;17497;51.476;7.770;2023-02-15T15:32:56;18.10;55.20
30764;DHT22;17497;51.476;7.770;2023-02-15T15:38:09;17.60;56.60
30764;DHT22;17497;51.476;7.770;2023-02-15T15:48:33;16.70;58.60
30764;DHT22;17497;51.476;7.770;2023-02-15T15:53:39;16.50;60.30
30764;DHT22;17497;51.476;7.770;2023-02-15T15:56:11;16.30;59.70
30764;DHT22;17497;51.476;7.770;2023-02-15T15:58:41;16.00;61.30
30764;DHT22;17497;51.476;7.770;2023-02-15T16:01:10;15.70;62.00
30764;DHT22;17497;51.476;7.770;2023-02-15T16:03:50;15.60;63.10
30764;DHT22;17497;51.476;7.770;2023-02-15T16:06:36;15.20;67.00
30764;DHT22;17497;51.476;7.770;2023-02-15T16:09:10;15.10;67.60
30764;DHT22;17497;51.476;7.770;2023-02-15T16:11:37;15.00;67.10
30764;DHT22;17497;51.476;7.770;2023-02-15T16:14:12;14.90;66.80
30764;DHT22;17497;51.476;7.770;2023-02-15T16:16:40;14.80;67.10
30764;DHT22;17497;51.476;7.770;2023-02-15T16:19:14;14.50;68.20
30764;DHT22;17497;51.476;7.770;2023-02-15T16:21:43;14.40;69.30
30764;DHT22;17497;51.476;7.770;2023-02-15T16:24:16;14.20;69.50
30764;DHT22;17497;51.476;7.770;2023-02-15T16:29:17;13.80;73.10
30764;DHT22;17497;51.476;7.770;2023-02-15T16:32:01;13.70;74.20
30764;DHT22;17497;51.476;7.770;2023-02-15T16:34:28;13.40;75.40
30764;DHT22;17497;51.476;7.770;2023-02-15T16:37:14;13.30;81.70
30764;DHT22;17497;51.476;7.770;2023-02-15T16:39:41;13.10;77.90
30764;DHT22;17497;51.476;7.770;2023-02-15T16:42:08;13.00;78.10
30764;DHT22;17497;51.476;7.770;2023-02-15T16:44:35;12.90;81.00
30764;DHT22;17497;51.476;7.770;2023-02-15T16:47:02;12.80;81.90
30764;DHT22;17497;51.476;7.770;2023-02-15T16:49:29;12.70;86.30
30764;DHT22;17497;51.476;7.770;2023-02-15T16:51:59;12.50;89.30
30764;DHT22;17497;51.476;7.770;2023-02-15T16:54:27;12.30;85.50
30764;DHT22;17497;51.476;7.770;2023-02-15T16:56:55;12.30;84.40
30764;DHT22;17497;51.476;7.770;2023-02-15T17:01:48;12.20;89.70
30764;DHT22;17497;51.476;7.770;2023-02-15T17:09:32;12.00;88.10
30764;DHT22;17497;51.476;7.770;2023-02-15T17:11:59;12.00;87.70
30764;DHT22;17497;51.476;7.770;2023-02-15T17:14:31;11.90;90.40
30764;DHT22;17497;51.476;7.770;2023-02-15T17:17:05;11.80;92.70
30764;DHT22;17497;51.476;7.770;2023-02-15T17:19:40;11.70;93.10
30764;DHT22;17497;51.476;7.770;2023-02-15T17:22:14;11.80;95.70
30764;DHT22;17497;51.476;7.770;2023-02-15T17:24:43;11.50;98.60
30764;DHT22;17497;51.476;7.770;2023-02-15T17:27:29;11.20;99.90
30764;DHT22;17497;51.476;7.770;2023-02-15T17:29:59;11.00;99.90
30764;DHT22;17497;51.476;7.770;2023-02-15T17:32:28;10.90;99.90
30764;DHT22;17497;51.476;7.770;2023-02-15T17:34:59;10.80;99.90
30764;DHT22;17497;51.476;7.770;2023-02-15T17:40:37;10.50;99.90
30764;DHT22;17497;51.476;7.770;2023-02-15T17:42:56;10.30;99.90
30764;DHT22;17497;51.476;7.770;2023-02-15T17:45:39;10.10;99.90
30764;DHT22;17497;51.476;7.770;2023-02-15T17:48:09;10.10;99.90
30764;DHT22;17497;51.476;7.770;2023-02-15T17:50:41;10.00;99.90
30764;DHT22;17497;51.476;7.770;2023-02-15T17:53:08;10.00;99.90
30764;DHT22;17497;51.476;7.770;2023-02-15T17:55:35;9.90;99.90
30764;DHT22;17497;51.476;7.770;2023-02-15T17:58:05;9.80;99.90
30764;DHT22;17497;51.476;7.770;2023-02-15T18:00:33;9.80;99.90
30764;DHT22;17497;51.476;7.770;2023-02-15T18:03:19;9.70;99.90
30764;DHT22;17497;51.476;7.770;2023-02-15T18:06:05;9.60;99.90
30764;DHT22;17497;51.476;7.770;2023-02-15T18:08:50;9.40;99.90
30764;DHT22;17497;51.476;7.770;2023-02-15T18:11:38;9.30;99.90
30764;DHT22;17497;51.476;7.770;2023-02-15T18:14:05;9.40;99.90
30764;DHT22;17497;51.476;7.770;2023-02-15T18:16:36;9.40;99.90
30764;DHT22;17497;51.476;7.770;2023-02-15T18:19:06;9.40;99.90
30764;DHT22;17497;51.476;7.770;2023-02-15T18:24:17;9.40;99.90
30764;DHT22;17497;51.476;7.770;2023-02-15T18:26:44;9.50;99.90
30764;DHT22;17497;51.476;7.770;2023-02-15T18:29:10;9.40;99.90
30764;DHT22;17497;51.476;7.770;2023-02-15T18:31:37;9.50;99.90
30764;DHT22;17497;51.476;7.770;2023-02-15T18:34:04;9.50;99.90
30764;DHT22;17497;51.476;7.770;2023-02-15T18:36:32;9.40;99.90
30764;DHT22;17497;51.476;7.770;2023-02-15T18:39:01;9.60;99.90
30764;DHT22;17497;51.476;7.770;2023-02-15T18:41:34;9.60;99.90
30764;DHT22;17497;51.476;7.770;2023-02-15T18:44:01;9.60;99.90
30764;DHT22;17497;51.476;7.770;2023-02-15T18:46:27;9.60;99.90
30764;DHT22;17497;51.476;7.770;2023-02-15T18:48:54;9.50;99.90
30764;DHT22;17497;51.476;7.770;2023-02-15T18:51:23;9.40;99.90
30764;DHT22;17497;51.476;7.770;2023-02-15T18:53:50;9.40;99.90
30764;DHT22;17497;51.476;7.770;2023-02-15T18:56:19;9.30;99.90
30764;DHT22;17497;51.476;7.770;2023-02-15T18:58:46;9.20;99.90
30764;DHT22;17497;51.476;7.770;2023-02-15T19:01:14;9.10;99.90
30764;DHT22;17497;51.476;7.770;2023-02-15T19:03:43;9.00;99.90
30764;DHT22;17497;51.476;7.770;2023-02-15T19:06:11;8.80;99.90
30764;DHT22;17497;51.476;7.770;2023-02-15T19:08:39;8.70;99.90